Time;durP1;ratioP1;P1;durP2;ratioP2;P2;SDS_P1;SDS_P2;PMS_P1;PMS_P2;Temp;Humidity;BMP_temperature;BMP_pressure;BME280_temperature;BME280_humidity;BME280_pressure;Samples;Min_cycle;Max_cycle;Signal;HPM_P1;HPM_P2
2024/01/07 00:00:24;;;;;;;0.00;0.00;;;;;;;2.73;100.00;100979.28;4963119;28;20440;-77
2024/01/07 00:02:49;;;;;;;0.10;0.10;;;;;;;2.65;100.00;100990.28;4992044;28;20377;-78
2024/01/07 00:05:15;;;;;;;0.00;0.00;;;;;;;2.68;100.00;101012.31;4966684;28;20672;-79
2024/01/07 00:07:50;;;;;;;0.00;0.00;;;;;;;2.58;100.00;101003.72;4969646;28;20034;-79
2024/01/07 00:10:33;;;;;;;0.00;0.00;;;;;;;2.70;100.00;101012.09;4967793;28;20022;-79
2024/01/07 00:13:01;;;;;;;0.10;0.10;;;;;;;2.88;100.00;101020.53;5005333;28;20248;-78
2024/01/07 00:15:37;;;;;;;;;;;;;;;;;;;;;
2024/01/07 00:18:12;;;;;;;0.00;0.00;;;;;;;3.36;100.00;101043.16;4994931;28;20451;-78
2024/01/07 00:20:38;;;;;;;0.10;0.10;;;;;;;3.40;100.00;101022.78;5009524;28;20053;-78
2024/01/07 00:23:07;;;;;;;0.00;0.00;;;;;;;3.52;100.00;101020.31;5005002;28;20089;-78
2024/01/07 00:25:32;;;;;;;0.00;0.00;;;;;;;3.57;99.76;101015.13;4979514;28;20109;-78
2024/01/07 00:27:57;;;;;;;0.10;0.10;;;;;;;3.62;99.04;101010.78;4966349;28;20549;-78
2024/01/07 00:30:23;;;;;;;0.00;0.00;;;;;;;3.83;99.31;101038.69;4979555;28;20452;-80
2024/01/07 00:32:51;;;;;;;0.00;0.00;;;;;;;3.82;98.17;101031.59;4991921;28;20030;-78
2024/01/07 00:35:19;;;;;;;0.00;0.00;;;;;;;3.74;98.46;101012.84;4979160;28;20030;-79
2024/01/07 00:37:44;;;;;;;0.00;0.00;;;;;;;3.90;97.95;101044.94;4983050;28;20030;-78
2024/01/07 00:40:10;;;;;;;0.00;0.00;;;;;;;3.86;98.32;101049.09;4962841;28;20445;-78
2024/01/07 00:42:36;;;;;;;0.00;0.00;;;;;;;3.71;98.32;101029.50;4988908;28;20056;-81
2024/01/07 00:45:01;;;;;;;0.00;0.00;;;;;;;3.71;98.50;101045.72;4984082;28;20022;-79
2024/01/07 00:47:27;;;;;;;0.00;0.00;;;;;;;3.63;99.06;101044.88;4994766;28;20080;-78
2024/01/07 00:49:52;;;;;;;0.00;0.00;;;;;;;3.61;99.01;101051.56;4961298;28;20024;-78
2024/01/07 00:52:18;;;;;;;0.00;0.00;;;;;;;3.52;99.35;101053.63;4951738;28;20081;-77
2024/01/07 00:54:43;;;;;;;0.10;0.10;;;;;;;3.47;99.52;101056.09;4971999;28;20038;-79
2024/01/07 00:57:11;;;;;;;0.00;0.00;;;;;;;3.31;99.74;101041.91;4958732;28;20040;-80
2024/01/07 00:59:37;;;;;;;0.00;0.00;;;;;;;3.08;100.00;101030.56;4992957;28;20021;-79
2024/01/07 01:02:02;;;;;;;0.10;0.10;;;;;;;3.12;100.00;101053.47;4994595;28;20060;-80
2024/01/07 01:04:28;;;;;;;0.00;0.00;;;;;;;3.06;100.00;101056.97;4957150;28;20027;-78
2024/01/07 01:06:53;;;;;;;0.00;0.00;;;;;;;3.02;100.00;101050.31;4955138;28;20045;-78
2024/01/07 01:09:19;;;;;;;0.00;0.00;;;;;;;3.02;100.00;101053.81;4959850;28;20080;-79
2024/01/07 01:11:44;;;;;;;0.00;0.00;;;;;;;2.91;100.00;101039.03;4973694;28;20030;-78
2024/01/07 01:14:09;;;;;;;0.00;0.00;;;;;;;2.96;100.00;101050.09;4958067;28;20474;-77
2024/01/07 01:16:35;;;;;;;0.00;0.00;;;;;;;3.06;100.00;101059.69;4997950;28;20018;-77
2024/01/07 01:19:00;;;;;;;0.00;0.00;;;;;;;3.18;100.00;101062.63;4971419;28;20369;-79
2024/01/07 01:21:26;;;;;;;0.00;0.00;;;;;;;3.28;100.00;101058.50;4994731;28;20049;-78
2024/01/07 01:23:51;;;;;;;0.00;0.00;;;;;;;3.45;100.00;101069.81;4947592;28;20023;-77
2024/01/07 01:26:16;;;;;;;0.00;0.00;;;;;;;3.52;100.00;101075.25;4994170;28;20025;-80
2024/01/07 01:28:42;;;;;;;0.10;0.10;;;;;;;3.64;100.00;101083.59;4966908;28;20108;-77
2024/01/07 01:31:07;;;;;;;0.00;0.00;;;;;;;3.69;100.00;101073.00;4971074;28;20030;-78
2024/01/07 01:33:33;;;;;;;0.00;0.00;;;;;;;3.64;100.00;101060.09;4982126;28;20022;-77
2024/01/07 01:35:58;;;;;;;0.00;0.00;;;;;;;3.77;99.90;101078.22;4973168;28;20022;-77
2024/01/07 01:38:24;;;;;;;0.00;0.00;;;;;;;3.80;100.00;101071.56;4966380;28;20121;-78
2024/01/07 01:40:53;;;;;;;0.00;0.00;;;;;;;3.81;100.00;101067.81;4958746;28;20458;-77
2024/01/07 01:43:28;;;;;;;0.00;0.00;;;;;;;3.84;100.00;101078.22;4975063;28;20077;-77
2024/01/07 01:45:55;;;;;;;0.00;0.00;;;;;;;3.72;100.00;101085.28;4987288;28;20026;-79
2024/01/07 01:48:22;;;;;;;0.10;0.10;;;;;;;3.42;100.00;101074.81;4991822;28;20049;-75
2024/01/07 01:50:48;;;;;;;0.00;0.00;;;;;;;3.12;100.00;101058.88;4979055;28;20080;-78
2024/01/07 01:53:17;;;;;;;0.00;0.00;;;;;;;2.99;100.00;101083.13;4998851;28;20417;-78
2024/01/07 01:55:43;;;;;;;0.00;0.00;;;;;;;2.80;100.00;101080.09;4993102;28;20018;-79
2024/01/07 01:58:09;;;;;;;0.00;0.00;;;;;;;2.53;100.00;101066.44;4995989;28;20701;-77
2024/01/07 02:00:35;;;;;;;0.00;0.00;;;;;;;2.43;100.00;101076.75;4986695;28;20507;-78
2024/01/07 02:03:00;;;;;;;0.00;0.00;;;;;;;2.43;100.00;101082.16;4993827;28;20022;-77
2024/01/07 02:05:27;;;;;;;0.00;0.00;;;;;;;2.38;100.00;101080.03;4967814;28;20022;-78
2024/01/07 02:07:54;;;;;;;0.10;0.10;;;;;;;2.59;100.00;101105.31;4962696;28;20038;-77
2024/01/07 02:10:20;;;;;;;0.00;0.00;;;;;;;2.70;100.00;101098.53;4977783;28;20034;-77
2024/01/07 02:12:48;;;;;;;0.10;0.10;;;;;;;2.79;100.00;101100.88;4979406;28;20038;-77
2024/01/07 02:15:13;;;;;;;0.00;0.00;;;;;;;3.00;100.00;101109.13;4983727;28;20145;-78
2024/01/07 02:17:39;;;;;;;0.00;0.00;;;;;;;3.10;100.00;101109.59;4994333;28;20497;-77
2024/01/07 02:20:05;;;;;;;0.10;0.10;;;;;;;3.14;100.00;101094.66;4970230;28;20152;-77
2024/01/07 02:22:30;;;;;;;0.00;0.00;;;;;;;3.21;100.00;101106.31;4977417;28;20030;-78
2024/01/07 02:24:56;;;;;;;0.10;0.10;;;;;;;3.32;100.00;101113.84;4980810;28;20057;-77
2024/01/07 02:27:21;;;;;;;0.00;0.00;;;;;;;3.39;100.00;101113.03;4968019;28;22100;-77
2024/01/07 02:29:46;;;;;;;0.10;0.10;;;;;;;3.28;100.00;101106.34;4989380;28;20078;-75
2024/01/07 02:32:12;;;;;;;0.00;0.00;;;;;;;3.07;100.00;101093.78;4975922;28;20030;-76
2024/01/07 02:34:37;;;;;;;0.00;0.00;;;;;;;3.04;100.00;101115.78;4976889;28;20461;-76
2024/01/07 02:37:03;;;;;;;0.00;0.00;;;;;;;2.84;100.00;101124.59;5012841;28;20034;-77
2024/01/07 02:39:28;;;;;;;0.00;0.00;;;;;;;2.65;100.00;101114.50;4972269;28;20030;-76
2024/01/07 02:41:54;;;;;;;0.00;0.00;;;;;;;2.47;100.00;101126.63;4973921;28;20030;-77
2024/01/07 02:44:20;;;;;;;0.00;0.00;;;;;;;2.32;100.00;101117.75;4972259;28;20084;-77
2024/01/07 02:46:46;;;;;;;0.00;0.00;;;;;;;2.19;100.00;101119.34;4951462;28;20080;-77
2024/01/07 02:49:12;;;;;;;0.00;0.00;;;;;;;2.26;100.00;101139.13;4964885;28;20026;-76
2024/01/07 02:51:38;;;;;;;0.10;0.10;;;;;;;2.31;100.00;101124.19;4976722;28;20110;-78
2024/01/07 02:54:03;;;;;;;0.10;0.10;;;;;;;2.38;100.00;101134.03;4996363;28;20425;-77
2024/01/07 02:56:29;;;;;;;0.00;0.00;;;;;;;2.38;100.00;101143.97;4980485;28;20113;-78
2024/01/07 02:58:54;;;;;;;0.00;0.00;;;;;;;2.31;100.00;101137.69;4967355;28;20515;-77
2024/01/07 03:01:25;;;;;;;0.00;0.00;;;;;;;2.25;100.00;101137.44;4990894;28;20040;-78
2024/01/07 03:03:50;;;;;;;0.10;0.10;;;;;;;2.13;100.00;101125.47;5004206;28;20025;-78
2024/01/07 03:06:16;;;;;;;0.00;0.00;;;;;;;2.04;100.00;101127.47;4956885;28;20026;-79
2024/01/07 03:08:42;;;;;;;0.00;0.00;;;;;;;1.94;100.00;101136.91;4972712;28;20054;-77
2024/01/07 03:11:08;;;;;;;0.00;0.00;;;;;;;1.83;100.00;101131.00;4993540;28;20072;-77
2024/01/07 03:13:33;;;;;;;0.00;0.00;;;;;;;1.84;100.00;101139.91;4977292;28;20145;-81
2024/01/07 03:15:59;;;;;;;0.10;0.10;;;;;;;1.77;100.00;101142.56;4961053;28;20018;-77
2024/01/07 03:18:24;;;;;;;0.00;0.00;;;;;;;1.75;100.00;101144.59;4975307;28;20385;-78
2024/01/07 03:20:50;;;;;;;0.10;0.10;;;;;;;1.67;100.00;101137.47;4971732;28;20058;-76
2024/01/07 03:23:15;;;;;;;0.10;0.10;;;;;;;1.56;100.00;101130.69;4975349;28;20057;-77
2024/01/07 03:25:41;;;;;;;0.10;0.10;;;;;;;1.64;100.00;101147.78;4982690;28;20038;-77
2024/01/07 03:28:06;;;;;;;0.00;0.00;;;;;;;1.55;100.00;101138.97;5013857;28;20526;-77
2024/01/07 03:30:39;;;;;;;0.00;0.00;;;;;;;1.59;100.00;101150.22;4992386;28;20034;-79
2024/01/07 03:33:05;;;;;;;0.10;0.10;;;;;;;1.49;100.00;101129.78;5000594;28;20026;-77
2024/01/07 03:35:30;;;;;;;0.00;0.00;;;;;;;1.42;100.00;101133.41;4973906;28;20034;-77
2024/01/07 03:37:55;;;;;;;0.00;0.00;;;;;;;1.54;100.00;101157.00;4965177;28;20109;-76
2024/01/07 03:40:23;;;;;;;0.00;0.00;;;;;;;1.50;100.00;101163.78;4994614;28;20030;-77
2024/01/07 03:42:54;;;;;;;0.10;0.10;;;;;;;1.38;100.00;101147.25;4982928;28;20045;-79
2024/01/07 03:45:19;;;;;;;0.00;0.00;;;;;;;1.43;100.00;101168.28;4971769;28;20141;-76
2024/01/07 03:47:44;;;;;;;0.10;0.10;;;;;;;1.29;100.00;101161.03;4994066;28;20087;-76
2024/01/07 03:50:10;;;;;;;0.10;0.10;;;;;;;1.39;100.00;101166.97;4965095;28;20384;-78
2024/01/07 03:52:35;;;;;;;0.10;0.10;;;;;;;1.41;100.00;101170.31;4977633;28;20018;-77
2024/01/07 03:55:01;;;;;;;0.10;0.10;;;;;;;1.36;100.00;101162.78;4978134;28;20030;-76
2024/01/07 03:57:26;;;;;;;0.10;0.10;;;;;;;1.34;100.00;101164.00;4964585;28;20080;-77
2024/01/07 03:59:51;;;;;;;0.10;0.10;;;;;;;1.36;100.00;101175.44;4999537;28;20026;-75
2024/01/07 04:02:17;;;;;;;0.10;0.10;;;;;;;1.38;100.00;101176.06;4986738;28;20034;-79
2024/01/07 04:04:42;;;;;;;0.00;0.00;;;;;;;1.30;100.00;101168.09;4978625;28;20057;-78
2024/01/07 04:07:08;;;;;;;0.10;0.10;;;;;;;1.33;100.00;101179.34;4960047;28;20033;-78
2024/01/07 04:09:33;;;;;;;0.10;0.10;;;;;;;1.27;100.00;101163.91;4971967;28;20030;-77
2024/01/07 04:11:58;;;;;;;0.10;0.10;;;;;;;1.34;100.00;101180.16;4973103;28;20845;-77
2024/01/07 04:14:24;;;;;;;0.10;0.10;;;;;;;1.35;100.00;101176.47;4972305;28;20153;-78
2024/01/07 04:16:49;;;;;;;0.10;0.10;;;;;;;1.40;100.00;101171.31;4982641;28;20477;-78
2024/01/07 04:19:15;;;;;;;0.10;0.10;;;;;;;1.47;100.00;101174.94;4976075;28;20027;-75
2024/01/07 04:21:45;;;;;;;0.10;0.10;;;;;;;1.60;100.00;101174.28;4975773;28;20118;-76
2024/01/07 04:24:11;;;;;;;0.10;0.10;;;;;;;1.63;100.00;101167.69;4985241;28;20026;-77
2024/01/07 04:26:36;;;;;;;0.08;0.08;;;;;;;1.65;100.00;101182.66;4955192;28;20132;-78
2024/01/07 04:29:02;;;;;;;0.00;0.00;;;;;;;1.57;100.00;101171.97;4982225;28;20034;-78
2024/01/07 04:31:27;;;;;;;0.10;0.10;;;;;;;1.56;100.00;101181.94;4960285;28;20028;-76
2024/01/07 04:33:54;;;;;;;0.00;0.00;;;;;;;1.56;100.00;101184.63;4973257;28;20057;-77
2024/01/07 04:36:19;;;;;;;0.10;0.10;;;;;;;1.46;100.00;101178.69;4959821;28;20034;-77
2024/01/07 04:38:44;;;;;;;0.10;0.10;;;;;;;1.45;100.00;101181.56;4972153;28;20076;-76
2024/01/07 04:41:10;;;;;;;0.10;0.10;;;;;;;1.53;100.00;101195.78;4984484;28;20468;-78
2024/01/07 04:43:36;;;;;;;0.10;0.10;;;;;;;1.54;100.00;101188.53;4986988;28;20397;-78
2024/01/07 04:46:02;;;;;;;0.10;0.10;;;;;;;1.63;100.00;101191.94;4988391;28;20026;-77
2024/01/07 04:48:27;;;;;;;0.00;0.00;;;;;;;1.75;100.00;101190.44;4981350;28;20029;-77
2024/01/07 04:50:53;;;;;;;0.10;0.10;;;;;;;1.69;100.00;101186.63;4971113;28;20040;-78
2024/01/07 04:53:18;;;;;;;0.10;0.10;;;;;;;1.73;100.00;101200.59;4952302;28;20121;-77
2024/01/07 04:55:43;;;;;;;0.10;0.10;;;;;;;1.80;100.00;101201.50;4979389;28;20056;-79
2024/01/07 04:58:09;;;;;;;0.00;0.00;;;;;;;1.95;100.00;101197.94;4956831;28;20975;-77
2024/01/07 05:00:35;;;;;;;0.00;0.00;;;;;;;2.14;100.00;101207.28;4973588;28;20030;-77
2024/01/07 05:03:00;;;;;;;0.00;0.00;;;;;;;2.20;100.00;101193.00;4989245;28;20037;-77
2024/01/07 05:05:26;;;;;;;0.10;0.10;;;;;;;2.35;100.00;101195.66;4957647;28;20046;-78
2024/01/07 05:07:51;;;;;;;0.10;0.10;;;;;;;2.42;100.00;101205.50;4982211;28;20038;-78
2024/01/07 05:10:16;;;;;;;0.00;0.00;;;;;;;2.41;100.00;101198.44;4981576;28;20044;-79
2024/01/07 05:12:42;;;;;;;0.00;0.00;;;;;;;2.54;100.00;101213.91;5002583;28;20029;-78
2024/01/07 05:15:09;;;;;;;0.00;0.00;;;;;;;2.55;100.00;101204.78;4975904;28;20042;-77
2024/01/07 05:17:34;;;;;;;0.10;0.10;;;;;;;2.65;100.00;101209.03;4981114;28;20022;-77
2024/01/07 05:19:59;;;;;;;0.10;0.10;;;;;;;2.70;100.00;101203.88;4949032;28;20042;-78
2024/01/07 05:22:25;;;;;;;0.10;0.10;;;;;;;2.85;100.00;101220.84;4986586;28;21675;-78
2024/01/07 05:24:50;;;;;;;0.10;0.10;;;;;;;2.95;100.00;101221.31;4976640;28;20030;-77
2024/01/07 05:27:16;;;;;;;0.10;0.10;;;;;;;3.02;100.00;101225.94;4975289;28;20025;-77
2024/01/07 05:29:46;;;;;;;0.00;0.00;;;;;;;3.14;100.00;101229.78;4968457;28;20532;-77
2024/01/07 05:32:11;;;;;;;0.00;0.00;;;;;;;3.17;100.00;101233.94;4981371;28;20048;-79
2024/01/07 05:34:36;;;;;;;0.00;0.00;;;;;;;3.23;100.00;101227.78;4975480;28;20018;-77
2024/01/07 05:37:02;;;;;;;0.00;0.00;;;;;;;3.29;100.00;101238.63;4963639;28;20030;-77
2024/01/07 05:39:27;;;;;;;0.10;0.10;;;;;;;3.31;100.00;101231.16;4974221;28;20036;-77
2024/01/07 05:41:53;;;;;;;0.00;0.00;;;;;;;3.41;100.00;101247.00;4984537;28;20033;-77
2024/01/07 05:44:18;;;;;;;0.00;0.00;;;;;;;3.45;100.00;101247.47;4962327;28;20023;-76
2024/01/07 05:46:44;;;;;;;0.10;0.10;;;;;;;3.51;100.00;101256.66;4947911;28;20045;-78
2024/01/07 05:49:09;;;;;;;0.00;0.00;;;;;;;3.50;100.00;101250.38;4996635;28;20089;-77
2024/01/07 05:51:39;;;;;;;0.00;0.00;;;;;;;3.58;100.00;101258.34;4986939;28;20037;-78
2024/01/07 05:54:04;;;;;;;0.10;0.10;;;;;;;3.60;100.00;101261.69;4974400;28;20451;-77
2024/01/07 05:56:30;;;;;;;0.00;0.00;;;;;;;3.63;100.00;101272.09;4966654;28;20030;-78
2024/01/07 05:58:55;;;;;;;0.00;0.00;;;;;;;3.65;100.00;101280.88;4957839;28;20022;-77
2024/01/07 06:01:21;;;;;;;0.00;0.00;;;;;;;3.64;100.00;101268.38;4969441;28;20063;-77
2024/01/07 06:03:48;;;;;;;0.00;0.00;;;;;;;3.60;100.00;101280.63;4998319;28;20076;-78
2024/01/07 06:06:14;;;;;;;0.00;0.00;;;;;;;3.58;100.00;101281.88;4993308;28;20054;-77
2024/01/07 06:08:42;;;;;;;0.00;0.00;;;;;;;3.56;100.00;101276.63;4967375;28;20058;-77
2024/01/07 06:11:07;;;;;;;0.10;0.10;;;;;;;3.57;100.00;101278.31;4997116;28;20026;-76
2024/01/07 06:13:33;;;;;;;0.10;0.10;;;;;;;3.57;100.00;101283.72;4976009;28;20083;-77
2024/01/07 06:15:59;;;;;;;0.10;0.10;;;;;;;3.57;100.00;101289.13;4993296;28;20132;-80
2024/01/07 06:18:24;;;;;;;0.10;0.10;;;;;;;3.64;100.00;101290.00;4965893;28;20078;-78
2024/01/07 06:20:50;;;;;;;0.00;0.00;;;;;;;3.61;100.00;101285.00;4990928;28;20072;-79
2024/01/07 06:23:15;;;;;;;0.00;0.00;;;;;;;3.71;100.00;101294.63;4990451;28;20489;-80
2024/01/07 06:25:40;;;;;;;0.03;0.03;;;;;;;3.75;100.00;101290.47;4969978;28;20049;-76
2024/01/07 06:28:07;;;;;;;0.10;0.10;;;;;;;3.77;100.00;101293.84;4958804;28;20376;-78
2024/01/07 06:30:33;;;;;;;0.00;0.00;;;;;;;3.78;100.00;101306.31;5008931;28;20065;-78
2024/01/07 06:32:59;;;;;;;0.00;0.00;;;;;;;3.76;99.56;101297.56;4963455;28;20033;-79
2024/01/07 06:35:24;;;;;;;0.00;0.00;;;;;;;3.72;98.82;101301.69;4970226;28;20034;-79
2024/01/07 06:37:50;;;;;;;0.00;0.00;;;;;;;3.77;97.74;101301.94;4981042;28;20094;-80
2024/01/07 06:40:15;;;;;;;0.00;0.00;;;;;;;3.75;97.29;101312.13;4964080;28;20057;-79
2024/01/07 06:42:41;;;;;;;0.00;0.00;;;;;;;3.80;96.99;101309.66;4997266;28;20036;-79
2024/01/07 06:45:07;;;;;;;0.00;0.00;;;;;;;3.77;96.31;101305.47;4972459;28;20014;-79
2024/01/07 06:47:32;;;;;;;0.10;0.10;;;;;;;3.81;96.78;101308.63;4976152;28;20035;-80
2024/01/07 06:49:57;;;;;;;0.10;0.10;;;;;;;3.79;96.22;101310.69;4971011;28;20603;-79
2024/01/07 06:52:23;;;;;;;0.00;0.00;;;;;;;3.72;96.50;101316.06;4961759;28;20023;-79
2024/01/07 06:54:48;;;;;;;0.00;0.00;;;;;;;3.73;96.55;101311.50;4955644;28;20030;-80
2024/01/07 06:57:14;;;;;;;0.00;0.00;;;;;;;3.74;95.67;101316.72;4970713;28;20022;-76
2024/01/07 06:59:39;;;;;;;0.00;0.00;;;;;;;3.75;96.01;101317.53;4962807;28;20056;-77
2024/01/07 07:02:05;;;;;;;0.00;0.00;;;;;;;3.83;96.00;101326.31;4956875;28;20014;-78
2024/01/07 07:04:30;;;;;;;0.10;0.10;;;;;;;3.78;94.95;101317.13;4957640;28;20034;-77
2024/01/07 07:06:59;;;;;;;0.00;0.00;;;;;;;3.83;94.38;101336.31;4968394;28;20469;-78
2024/01/07 07:09:26;;;;;;;0.00;0.00;;;;;;;3.81;94.52;101333.81;4965731;28;20030;-77
2024/01/07 07:11:52;;;;;;;0.00;0.00;;;;;;;3.88;94.10;101328.44;4974218;28;20014;-78
2024/01/07 07:14:17;;;;;;;0.00;0.00;;;;;;;3.95;93.81;101345.53;4965842;28;20028;-78
2024/01/07 07:16:42;;;;;;;0.00;0.00;;;;;;;3.94;92.79;101343.03;4980066;28;20058;-78
2024/01/07 07:19:08;;;;;;;0.10;0.10;;;;;;;4.00;92.01;101351.22;4977685;28;20021;-78
2024/01/07 07:21:33;;;;;;;0.00;0.00;;;;;;;3.94;92.19;101341.19;4966139;28;20716;-78
2024/01/07 07:23:59;;;;;;;0.10;0.10;;;;;;;3.95;90.36;101340.13;4950529;28;20029;-80
2024/01/07 07:26:24;;;;;;;0.00;0.00;;;;;;;3.82;89.94;101345.47;4985420;28;20036;-77
2024/01/07 07:28:50;;;;;;;0.00;0.00;;;;;;;4.02;91.20;101362.66;5003490;28;20033;-77
2024/01/07 07:31:16;;;;;;;0.00;0.00;;;;;;;4.15;91.48;101351.06;4974597;28;20034;-77
2024/01/07 07:33:42;;;;;;;0.10;0.10;;;;;;;4.25;91.47;101345.28;4999380;28;20108;-77
2024/01/07 07:36:07;;;;;;;0.00;0.00;;;;;;;4.44;91.53;101353.69;4966702;28;20117;-77
2024/01/07 07:38:33;;;;;;;0.00;0.00;;;;;;;4.78;92.91;101365.47;4989444;28;20021;-78
2024/01/07 07:41:00;;;;;;;0.00;0.00;;;;;;;4.80;93.08;101375.06;4975294;28;20031;-78
2024/01/07 07:43:26;;;;;;;0.00;0.00;;;;;;;4.61;94.08;101382.09;4997024;28;20034;-80
2024/01/07 07:45:51;;;;;;;0.00;0.00;;;;;;;4.27;93.72;101385.72;4991295;28;20030;-78
2024/01/07 07:48:18;;;;;;;0.10;0.10;;;;;;;3.89;93.67;101392.34;4971121;28;20026;-75
2024/01/07 07:50:43;;;;;;;0.00;0.00;;;;;;;3.54;93.07;101388.78;4971949;28;20038;-77
2024/01/07 07:53:09;;;;;;;0.00;0.00;;;;;;;3.49;93.85;101394.78;4957944;28;20036;-78
2024/01/07 07:55:35;;;;;;;0.10;0.10;;;;;;;3.35;94.42;101387.56;4980296;28;20488;-78
2024/01/07 07:58:00;;;;;;;0.00;0.00;;;;;;;3.20;95.31;101402.00;4970205;28;20034;-77
2024/01/07 08:00:26;;;;;;;0.10;0.10;;;;;;;2.79;94.90;101394.50;4975007;28;20038;-77
2024/01/07 08:02:51;;;;;;;0.00;0.00;;;;;;;2.51;94.61;101403.31;5006934;28;20038;-76
2024/01/07 08:05:17;;;;;;;0.00;0.00;;;;;;;2.34;94.37;101407.25;4968909;28;20035;-77
2024/01/07 08:07:42;;;;;;;0.00;0.00;;;;;;;2.23;94.21;101406.69;4962585;28;20016;-78
2024/01/07 08:10:09;;;;;;;0.00;0.00;;;;;;;2.04;93.55;101401.84;4986544;28;20073;-76
2024/01/07 08:12:34;;;;;;;0.00;0.00;;;;;;;1.98;93.81;101403.41;4965021;28;20397;-78
2024/01/07 08:15:00;;;;;;;0.00;0.00;;;;;;;2.01;93.56;101426.50;4975739;28;20041;-78
2024/01/07 08:17:25;;;;;;;0.00;0.00;;;;;;;1.89;93.45;101421.56;4956877;28;20029;-76
2024/01/07 08:19:52;;;;;;;0.00;0.00;;;;;;;1.84;94.00;101407.78;4973198;28;20026;-76
2024/01/07 08:22:17;;;;;;;0.00;0.00;;;;;;;1.80;93.65;101416.44;4948102;28;20113;-77
2024/01/07 08:24:43;;;;;;;0.10;0.10;;;;;;;1.82;93.68;101428.69;4970212;28;20061;-77
2024/01/07 08:27:09;;;;;;;0.00;0.00;;;;;;;1.78;93.76;101421.16;4982337;28;20010;-78
2024/01/07 08:29:35;;;;;;;0.00;0.00;;;;;;;1.66;93.84;101426.16;4979744;28;20029;-78
2024/01/07 08:32:03;;;;;;;0.10;0.10;;;;;;;1.57;93.52;101414.59;4965492;28;20050;-78
2024/01/07 08:34:31;;;;;;;0.10;0.10;;;;;;;1.55;93.51;101409.41;4984291;28;20018;-78
2024/01/07 08:36:57;;;;;;;0.00;0.00;;;;;;;1.54;93.84;101418.50;4989290;28;20030;-79
2024/01/07 08:39:28;;;;;;;0.00;0.00;;;;;;;1.45;93.97;101408.81;4987472;28;20101;-80
2024/01/07 08:41:56;;;;;;;0.00;0.00;;;;;;;1.57;94.11;101428.91;4989494;28;20025;-78
2024/01/07 08:44:21;;;;;;;0.00;0.00;;;;;;;1.65;94.65;101432.56;4985670;28;20066;-78
2024/01/07 08:46:47;;;;;;;0.10;0.10;;;;;;;1.60;94.14;101437.69;4984457;28;20121;-79
2024/01/07 08:49:15;;;;;;;0.10;0.10;;;;;;;1.52;94.17;101427.78;4977897;28;20906;-77
2024/01/07 08:51:40;;;;;;;0.10;0.10;;;;;;;1.54;94.07;101426.59;4988344;28;20042;-79
2024/01/07 08:54:05;;;;;;;0.10;0.10;;;;;;;1.45;93.15;101399.91;4990755;28;20090;-79
2024/01/07 08:56:31;;;;;;;0.10;0.10;;;;;;;1.77;93.47;101433.81;4984857;28;20028;-78
2024/01/07 08:58:56;;;;;;;0.10;0.10;;;;;;;2.00;92.71;101443.69;4969394;28;20468;-78
2024/01/07 09:01:22;;;;;;;0.00;0.00;;;;;;;2.05;92.83;101425.13;4977124;28;20049;-78
2024/01/07 09:03:49;;;;;;;0.00;0.00;;;;;;;2.10;92.41;101417.28;4985852;28;20034;-77
2024/01/07 09:06:14;;;;;;;0.00;0.00;;;;;;;2.37;92.13;101444.66;4958269;28;20042;-77
2024/01/07 09:08:42;;;;;;;0.00;0.00;;;;;;;2.50;92.67;101435.88;4987444;28;20059;-78
2024/01/07 09:11:12;;;;;;;0.00;0.00;;;;;;;2.73;91.45;101433.91;4988969;28;20072;-78
2024/01/07 09:13:37;;;;;;;0.10;0.10;;;;;;;2.77;90.77;101404.66;4983995;28;20045;-79
2024/01/07 09:16:08;;;;;;;0.00;0.00;;;;;;;3.15;91.08;101442.25;4985528;28;20022;-82
2024/01/07 09:18:33;;;;;;;0.10;0.10;;;;;;;3.12;90.48;101404.81;4983920;28;20072;-79
2024/01/07 09:20:58;;;;;;;0.00;0.00;;;;;;;3.40;89.70;101429.22;4992171;28;20121;-76
2024/01/07 09:23:24;;;;;;;0.10;0.10;;;;;;;3.55;89.15;101437.25;4991533;28;20752;-78
2024/01/07 09:25:49;;;;;;;0.00;0.00;;;;;;;3.62;89.09;101451.69;4985754;28;20057;-77
2024/01/07 09:28:15;;;;;;;0.10;0.10;;;;;;;3.52;88.44;101437.66;4982152;28;20038;-78
2024/01/07 09:30:43;;;;;;;0.00;0.00;;;;;;;3.60;87.26;101453.72;5004903;28;20029;-77
2024/01/07 09:33:15;;;;;;;0.00;0.00;;;;;;;3.54;86.41;101440.16;4981090;28;20078;-77
2024/01/07 09:35:40;;;;;;;0.00;0.00;;;;;;;3.62;85.63;101454.38;4978960;28;20079;-77
2024/01/07 09:38:06;;;;;;;0.10;0.10;;;;;;;3.64;85.26;101457.72;5008890;28;20021;-77
2024/01/07 09:40:31;;;;;;;0.00;0.00;;;;;;;3.83;85.46;101460.78;4965705;28;20037;-76
2024/01/07 09:42:59;;;;;;;0.00;0.00;;;;;;;4.02;84.90;101470.94;4957371;28;20427;-77
2024/01/07 09:45:25;;;;;;;0.00;0.00;;;;;;;4.22;84.02;101475.66;4960844;28;20102;-76
2024/01/07 09:47:53;;;;;;;0.00;0.00;;;;;;;5.62;83.55;101461.75;4996064;28;20469;-78
2024/01/07 09:50:22;;;;;;;0.00;0.00;;;;;;;6.41;78.63;101451.94;5006492;28;20113;-75
2024/01/07 09:52:48;;;;;;;0.10;0.10;;;;;;;7.78;76.71;101477.16;4979943;28;20113;-78
2024/01/07 09:55:44;;;;;;;0.00;0.00;;;;;;;8.49;69.66;101464.97;4981753;28;20053;-77
2024/01/07 09:58:09;;;;;;;0.00;0.00;;;;;;;9.53;65.03;101483.16;4997888;28;20030;-79
2024/01/07 10:00:36;;;;;;;0.00;0.00;;;;;;;9.10;63.83;101500.56;4962334;28;20041;-77
2024/01/07 10:03:04;;;;;;;0.00;0.00;;;;;;;8.59;64.32;101499.09;5009992;28;20068;-75
2024/01/07 10:05:30;;;;;;;0.00;0.00;;;;;;;7.82;65.32;101481.91;4981775;28;20109;-77
2024/01/07 10:08:13;;;;;;;0.00;0.00;;;;;;;7.24;66.72;101460.34;4988130;28;20038;-78
2024/01/07 10:10:40;;;;;;;0.00;0.00;;;;;;;6.81;68.06;101483.56;5006743;28;20029;-80
2024/01/07 10:13:08;;;;;;;0.00;0.00;;;;;;;6.39;69.68;101497.47;5004595;28;20030;-78
2024/01/07 10:15:34;;;;;;;0.10;0.10;;;;;;;6.09;70.98;101508.81;4977133;28;20006;-79
2024/01/07 10:18:05;;;;;;;0.00;0.00;;;;;;;5.77;71.97;101505.84;4971831;28;20038;-78
2024/01/07 10:20:37;;;;;;;0.00;0.00;;;;;;;5.54;73.04;101489.13;4983724;28;20112;-79
2024/01/07 10:23:04;;;;;;;0.00;0.00;;;;;;;5.50;73.67;101488.69;4985720;28;20026;-80
2024/01/07 10:25:36;;;;;;;0.00;0.00;;;;;;;5.68;73.23;101500.81;4988497;28;20026;-82
2024/01/07 10:28:05;;;;;;;0.10;0.10;;;;;;;5.72;73.67;101496.66;4961438;28;20085;-81
2024/01/07 10:30:34;;;;;;;0.10;0.10;;;;;;;5.77;73.20;101516.69;4963266;28;20029;-80
2024/01/07 10:33:11;;;;;;;0.00;0.00;;;;;;;5.72;72.88;101504.78;5005118;28;20093;-80
2024/01/07 10:35:47;;;;;;;0.00;0.00;;;;;;;5.76;72.81;101509.59;4979295;28;20030;-80
2024/01/07 10:38:32;;;;;;;;;;;;;;;;;;;;;
2024/01/07 10:41:34;;;;;;;0.00;0.00;;;;;;;5.68;72.67;101531.53;5008884;28;20089;-79
2024/01/07 10:44:07;;;;;;;0.00;0.00;;;;;;;5.69;73.42;101533.16;4991689;28;20136;-79
2024/01/07 10:46:33;;;;;;;0.00;0.00;;;;;;;5.65;73.28;101507.50;4984898;28;20018;-78
2024/01/07 10:49:32;;;;;;;;;;;;;;;;;;;;;
2024/01/07 10:52:06;;;;;;;0.00;0.00;;;;;;;6.02;72.25;101523.44;4991445;28;20105;-78
2024/01/07 10:54:36;;;;;;;0.00;0.00;;;;;;;5.98;71.89;101533.88;4989045;28;20117;-79
2024/01/07 10:57:27;;;;;;;0.10;0.10;;;;;;;5.89;71.90;101529.66;4984544;28;20027;-79
2024/01/07 10:59:54;;;;;;;0.00;0.00;;;;;;;5.63;72.49;101508.75;4975989;28;20042;-80
2024/01/07 11:02:23;;;;;;;0.00;0.00;;;;;;;5.56;71.66;101508.72;4969299;28;20026;-79
2024/01/07 11:05:47;;;;;;;0.00;0.00;;;;;;;5.59;72.44;101513.75;4978263;28;20072;-79
2024/01/07 11:08:24;;;;;;;0.00;0.00;;;;;;;5.31;71.79;101468.63;4938071;29;20028;-79
2024/01/07 11:11:06;;;;;;;0.00;0.00;;;;;;;5.72;72.25;101497.50;4952907;28;20027;-79
2024/01/07 11:13:37;;;;;;;0.00;0.00;;;;;;;6.08;71.44;101500.88;4973731;28;20536;-81
2024/01/07 11:16:12;;;;;;;0.00;0.00;;;;;;;6.41;69.74;101522.56;4987684;28;20018;-78
2024/01/07 11:18:42;;;;;;;0.00;0.00;;;;;;;6.68;69.30;101540.72;4979874;28;20022;-80
2024/01/07 11:21:08;;;;;;;0.00;0.00;;;;;;;6.74;67.91;101508.06;4993079;28;20042;-81
2024/01/07 11:23:43;;;;;;;0.00;0.00;;;;;;;7.22;67.78;101522.31;4991124;28;20065;-81
2024/01/07 11:26:09;;;;;;;0.00;0.00;;;;;;;7.49;67.67;101502.06;5005630;28;20065;-80
2024/01/07 11:28:56;;;;;;;0.00;0.00;;;;;;;7.85;65.39;101511.44;4984818;28;20049;-80
2024/01/07 11:31:42;;;;;;;0.00;0.00;;;;;;;8.14;64.38;101530.91;4999547;28;20030;-81
2024/01/07 11:34:11;;;;;;;0.00;0.00;;;;;;;8.42;63.95;101509.69;4977354;28;20024;-81